Time;durP1;ratioP1;P1;durP2;ratioP2;P2;SDS_P1;SDS_P2;PMS_P1;PMS_P2;Temp;Humidity;BMP_temperature;BMP_pressure;BME280_temperature;BME280_humidity;BME280_pressure;Samples;Min_cycle;Max_cycle;Signal;HPM_P1;HPM_P2
2023/07/14 00:00:13;;;;;;;2.37;1.90;;;19.20;99.90;;;;;;5126018;28;20205;-81
2023/07/14 00:02:41;;;;;;;1.97;1.67;;;19.30;99.90;;;;;;5125773;28;20212;-80
2023/07/14 00:05:14;;;;;;;2.90;1.93;;;19.30;99.90;;;;;;5125975;28;20231;-81
2023/07/14 00:07:42;;;;;;;2.23;2.03;;;19.30;99.90;;;;;;5125476;28;20257;-81
2023/07/14 00:10:15;;;;;;;2.00;1.80;;;19.30;99.90;;;;;;5125746;28;20711;-81
2023/07/14 00:12:42;;;;;;;2.03;1.83;;;19.30;99.90;;;;;;5127645;27;20204;-81
2023/07/14 00:15:09;;;;;;;2.00;1.90;;;19.20;99.90;;;;;;5129682;27;20207;-81
2023/07/14 00:17:37;;;;;;;1.70;1.60;;;19.20;99.90;;;;;;5129354;27;20513;-81
2023/07/14 00:20:23;;;;;;;2.00;1.80;;;19.20;99.90;;;;;;5115811;27;20199;-81
2023/07/14 00:22:52;;;;;;;1.70;1.60;;;19.20;99.90;;;;;;5112458;27;20671;-80
2023/07/14 00:25:20;;;;;;;2.90;2.17;;;19.10;99.90;;;;;;5109234;28;20213;-80
2023/07/14 00:27:47;;;;;;;2.20;2.00;;;19.20;99.90;;;;;;5114104;27;20691;-81
2023/07/14 00:30:18;;;;;;;2.30;2.10;;;19.10;99.90;;;;;;5129058;27;20318;-81
2023/07/14 00:32:45;;;;;;;2.57;2.20;;;19.10;99.90;;;;;;5116893;27;20186;-81
2023/07/14 00:35:23;;;;;;;4.30;2.10;;;19.00;99.90;;;;;;5109850;27;20304;-81
2023/07/14 00:37:53;;;;;;;2.10;2.00;;;19.10;99.90;;;;;;5129046;27;20328;-81
2023/07/14 00:40:23;;;;;;;2.43;1.90;;;19.00;99.90;;;;;;5129538;27;20215;-82
2023/07/14 00:42:55;;;;;;;2.57;2.20;;;19.00;99.90;;;;;;5128654;27;20210;-81
2023/07/14 00:45:24;;;;;;;2.20;2.00;;;18.90;99.90;;;;;;5129361;27;20280;-81
2023/07/14 00:47:54;;;;;;;4.30;2.10;;;18.90;99.90;;;;;;5128622;27;20289;-80
2023/07/14 00:50:30;;;;;;;2.33;2.00;;;18.90;99.90;;;;;;5128675;27;20237;-81
2023/07/14 00:53:00;;;;;;;2.30;1.73;;;18.90;99.90;;;;;;5129156;27;20288;-81
2023/07/14 00:55:40;;;;;;;2.87;2.10;;;18.80;99.90;;;;;;5128534;27;20211;-82
2023/07/14 00:58:23;;;;;;;1.90;1.80;;;18.80;99.90;;;;;;5129207;27;20316;-81
2023/07/14 01:01:10;;;;;;;2.47;2.13;;;18.70;99.90;;;;;;5129824;27;20207;-81
2023/07/14 01:03:39;;;;;;;3.77;2.43;;;18.60;99.90;;;;;;5113804;27;20281;-81
2023/07/14 01:06:09;;;;;;;2.40;2.00;;;18.60;99.90;;;;;;5109237;27;20198;-81
2023/07/14 01:08:43;;;;;;;2.57;2.30;;;18.60;99.90;;;;;;5109516;27;20742;-81
2023/07/14 01:11:10;;;;;;;2.27;2.13;;;18.60;99.90;;;;;;5128900;27;20228;-81
2023/07/14 01:13:37;;;;;;;4.70;2.30;;;18.60;99.90;;;;;;5128402;27;20208;-81
2023/07/14 01:16:04;;;;;;;2.30;2.10;;;18.60;99.90;;;;;;5132084;27;20201;-81
2023/07/14 01:18:31;;;;;;;2.50;2.27;;;18.50;99.90;;;;;;5137336;27;20224;-80
2023/07/14 01:20:58;;;;;;;2.60;2.40;;;18.50;99.90;;;;;;5108021;28;20941;-81
2023/07/14 01:23:53;;;;;;;3.57;1.97;;;18.50;99.90;;;;;;5107061;28;20222;-81
2023/07/14 01:26:31;;;;;;;3.13;2.10;;;18.50;99.90;;;;;;5126114;27;20252;-83
2023/07/14 01:29:00;;;;;;;2.00;1.90;;;18.50;99.90;;;;;;5108144;28;20216;-81
2023/07/14 01:31:27;;;;;;;3.00;2.27;;;18.50;99.90;;;;;;5127457;27;20225;-81
2023/07/14 01:33:55;;;;;;;2.60;2.40;;;18.50;99.90;;;;;;5128886;27;20292;-81
2023/07/14 01:36:24;;;;;;;2.60;2.30;;;18.40;99.90;;;;;;5128620;27;20224;-81
2023/07/14 01:38:52;;;;;;;3.10;2.07;;;18.40;99.90;;;;;;5128151;27;20983;-81
2023/07/14 01:41:19;;;;;;;2.30;2.20;;;18.20;99.90;;;;;;5123188;27;20202;-81
2023/07/14 01:43:46;;;;;;;2.47;2.00;;;18.30;99.90;;;;;;5127994;27;20279;-81
2023/07/14 01:46:18;;;;;;;3.40;2.97;;;18.30;99.90;;;;;;5128304;27;20229;-81
2023/07/14 01:49:08;;;;;;;3.00;2.10;;;18.30;99.90;;;;;;5113761;27;20300;-81
2023/07/14 01:51:39;;;;;;;2.40;2.20;;;18.30;99.90;;;;;;5124148;27;20217;-81
2023/07/14 01:54:26;;;;;;;3.77;2.30;;;18.30;99.90;;;;;;5128125;27;20194;-81
2023/07/14 01:56:55;;;;;;;2.70;2.50;;;18.30;99.90;;;;;;5127791;27;20222;-80
2023/07/14 01:59:28;;;;;;;2.47;2.20;;;18.30;99.90;;;;;;5127744;27;20303;-81
2023/07/14 02:02:00;;;;;;;2.67;2.47;;;18.20;99.90;;;;;;5128057;27;20197;-81
2023/07/14 02:04:34;;;;;;;2.40;2.20;;;18.10;99.90;;;;;;5127894;27;20201;-81
2023/07/14 02:07:02;;;;;;;4.37;2.57;;;18.10;99.90;;;;;;5127042;27;20298;-80
2023/07/14 02:09:31;;;;;;;2.50;2.30;;;18.10;99.90;;;;;;5127688;27;20569;-81
2023/07/14 02:12:01;;;;;;;2.30;2.10;;;18.10;99.90;;;;;;5118415;27;20198;-81
2023/07/14 02:14:32;;;;;;;2.50;2.40;;;18.20;99.90;;;;;;5127662;27;20198;-81
2023/07/14 02:17:06;;;;;;;2.80;2.60;;;18.10;99.90;;;;;;5107742;28;20528;-82
2023/07/14 02:19:33;;;;;;;3.20;2.70;;;18.10;99.90;;;;;;5119710;27;20671;-81
2023/07/14 02:22:02;;;;;;;2.93;2.67;;;17.90;99.90;;;;;;5115802;27;20744;-81
2023/07/14 02:24:30;;;;;;;3.03;2.77;;;17.70;99.90;;;;;;5148396;27;20208;-81
2023/07/14 02:27:00;;;;;;;2.90;2.53;;;17.40;99.90;;;;;;5141935;27;20727;-82
2023/07/14 02:29:27;;;;;;;3.60;2.60;;;17.40;99.90;;;;;;5106491;28;20769;-81
2023/07/14 02:31:57;;;;;;;3.00;2.53;;;17.10;99.90;;;;;;5106567;28;20708;-80
2023/07/14 02:34:32;;;;;;;3.70;2.90;;;17.30;99.90;;;;;;5106544;28;20296;-81
2023/07/14 02:37:00;;;;;;;3.63;2.80;;;17.20;99.90;;;;;;5106991;28;20196;-85
2023/07/14 02:39:32;;;;;;;4.37;2.60;;;17.30;99.90;;;;;;5111733;27;20198;-81
2023/07/14 02:42:00;;;;;;;3.00;2.80;;;17.40;99.90;;;;;;5127260;27;20280;-81
2023/07/14 02:44:31;;;;;;;3.23;2.93;;;17.50;99.90;;;;;;5127571;27;20296;-81
2023/07/14 02:47:01;;;;;;;2.47;2.30;;;17.60;99.90;;;;;;5108331;27;20198;-81
2023/07/14 02:49:29;;;;;;;3.00;2.80;;;17.60;99.90;;;;;;5128495;27;20214;-81
2023/07/14 02:51:56;;;;;;;2.80;2.60;;;17.70;99.90;;;;;;5126412;27;20243;-81
2023/07/14 02:54:25;;;;;;;3.73;2.80;;;17.70;99.90;;;;;;5127175;27;20228;-81
2023/07/14 02:56:52;;;;;;;3.17;2.97;;;17.70;99.90;;;;;;5126404;27;21005;-81
2023/07/14 02:59:20;;;;;;;4.07;2.83;;;17.70;99.90;;;;;;5126641;27;20205;-81
2023/07/14 03:01:47;;;;;;;3.00;2.80;;;17.50;99.90;;;;;;5124452;27;20862;-81
2023/07/14 03:04:14;;;;;;;2.83;2.50;;;17.40;99.90;;;;;;5126209;27;20231;-80
2023/07/14 03:06:42;;;;;;;3.30;3.00;;;17.40;99.90;;;;;;5125902;27;20304;-80
2023/07/14 03:09:09;;;;;;;3.23;2.97;;;17.30;99.90;;;;;;5117944;27;20216;-80
2023/07/14 03:11:36;;;;;;;2.80;2.60;;;17.20;99.90;;;;;;5105403;28;20238;-80
2023/07/14 03:14:04;;;;;;;2.87;2.67;;;17.40;99.90;;;;;;5105979;28;20665;-81
2023/07/14 03:16:31;;;;;;;3.10;2.90;;;17.40;99.90;;;;;;5110984;27;20206;-80
2023/07/14 03:18:58;;;;;;;2.83;2.50;;;17.40;99.90;;;;;;5124001;27;20219;-80
2023/07/14 03:21:25;;;;;;;2.93;2.67;;;17.50;99.90;;;;;;5126241;27;20216;-80
2023/07/14 03:23:54;;;;;;;3.47;3.17;;;17.60;99.90;;;;;;5125878;27;20204;-80
2023/07/14 03:26:21;;;;;;;3.43;3.13;;;17.30;99.90;;;;;;5126439;27;20292;-80
2023/07/14 03:28:48;;;;;;;3.97;3.27;;;17.20;99.90;;;;;;5126114;27;20609;-80
2023/07/14 03:31:14;;;;;;;3.27;2.97;;;17.30;99.90;;;;;;5125933;27;20233;-81
2023/07/14 03:33:44;;;;;;;2.73;2.63;;;17.30;99.90;;;;;;5126231;27;20209;-80
2023/07/14 03:36:12;;;;;;;3.23;2.97;;;17.40;99.90;;;;;;5120208;27;20656;-80
2023/07/14 03:38:41;;;;;;;3.27;3.00;;;17.50;99.90;;;;;;5105859;28;20226;-81
2023/07/14 03:41:10;;;;;;;3.33;3.03;;;17.50;99.90;;;;;;5105811;28;20237;-81
2023/07/14 03:43:37;;;;;;;3.00;2.77;;;17.70;99.90;;;;;;5105170;28;20206;-80
2023/07/14 03:46:04;;;;;;;3.07;2.87;;;17.70;99.90;;;;;;5105660;28;20320;-80
2023/07/14 03:48:30;;;;;;;3.60;3.30;;;17.80;99.90;;;;;;5119464;27;20291;-80
2023/07/14 03:51:01;;;;;;;3.57;3.27;;;17.60;99.90;;;;;;5135782;27;20611;-81
2023/07/14 03:53:28;;;;;;;3.47;3.17;;;17.30;99.90;;;;;;5130590;27;20213;-80
2023/07/14 03:55:55;;;;;;;3.73;3.30;;;17.30;99.90;;;;;;5130022;27;20332;-81
2023/07/14 03:58:23;;;;;;;5.20;3.27;;;17.10;99.90;;;;;;5119790;27;20220;-80
2023/07/14 04:00:50;;;;;;;3.37;3.17;;;17.10;99.90;;;;;;5109764;27;20239;-80
2023/07/14 04:03:17;;;;;;;4.00;3.33;;;17.00;99.90;;;;;;5129328;27;20324;-82
2023/07/14 04:05:46;;;;;;;3.10;2.90;;;17.00;99.90;;;;;;5125501;27;20216;-80
2023/07/14 04:08:13;;;;;;;3.33;3.00;;;17.10;99.90;;;;;;5109784;28;20601;-81
2023/07/14 04:10:40;;;;;;;3.57;2.60;;;17.20;99.90;;;;;;5109879;28;20325;-80
2023/07/14 04:13:07;;;;;;;3.60;2.97;;;17.40;99.90;;;;;;5121311;27;20213;-81
2023/07/14 04:15:35;;;;;;;3.17;2.93;;;17.40;99.90;;;;;;5123924;27;20226;-80
2023/07/14 04:18:02;;;;;;;3.20;2.90;;;17.40;99.90;;;;;;5109565;28;20731;-80
2023/07/14 04:20:29;;;;;;;3.00;2.60;;;17.20;99.90;;;;;;5130314;27;20320;-80
2023/07/14 04:22:57;;;;;;;3.63;3.43;;;17.30;99.90;;;;;;5129839;27;20209;-80
2023/07/14 04:25:24;;;;;;;3.17;2.97;;;17.20;99.90;;;;;;5128960;27;20763;-81
2023/07/14 04:27:52;;;;;;;3.83;3.37;;;17.20;99.90;;;;;;5129196;27;20209;-81
2023/07/14 04:30:19;;;;;;;3.33;3.10;;;17.40;99.90;;;;;;5129398;27;20255;-82
2023/07/14 04:32:50;;;;;;;3.40;3.10;;;17.50;99.90;;;;;;5128836;27;20208;-82
2023/07/14 04:35:17;;;;;;;3.63;2.90;;;17.40;99.90;;;;;;5129776;27;20201;-79
2023/07/14 04:37:44;;;;;;;3.57;3.17;;;17.60;99.90;;;;;;5128589;27;20232;-82
2023/07/14 04:40:12;;;;;;;9.13;3.10;;;17.50;99.90;;;;;;5129470;27;20305;-81
2023/07/14 04:42:39;;;;;;;3.33;3.00;;;17.40;99.90;;;;;;5129223;27;20668;-80
2023/07/14 04:45:07;;;;;;;3.43;3.23;;;17.30;99.90;;;;;;5128193;27;20296;-80
2023/07/14 04:47:34;;;;;;;3.63;3.00;;;17.30;99.90;;;;;;5108725;27;20301;-79
2023/07/14 04:50:03;;;;;;;4.07;3.47;;;17.40;99.90;;;;;;5118913;27;20300;-80
2023/07/14 04:52:29;;;;;;;4.73;3.83;;;17.30;99.90;;;;;;5108974;28;20233;-79
2023/07/14 04:54:56;;;;;;;4.03;3.40;;;17.10;99.90;;;;;;5120598;27;20201;-79
2023/07/14 04:57:23;;;;;;;3.30;3.10;;;17.00;99.90;;;;;;5128792;27;20205;-79
2023/07/14 04:59:50;;;;;;;3.73;3.43;;;17.20;99.90;;;;;;5127835;27;20572;-79
2023/07/14 05:02:17;;;;;;;3.50;3.20;;;17.30;99.90;;;;;;5122264;27;20580;-79
2023/07/14 05:05:05;;;;;;;3.13;2.93;;;17.50;99.90;;;;;;5128769;27;20206;-79
2023/07/14 05:07:33;;;;;;;3.63;2.97;;;17.50;99.90;;;;;;5128263;27;20248;-79
2023/07/14 05:10:00;;;;;;;3.57;3.23;;;17.50;99.90;;;;;;5128097;27;20667;-79
2023/07/14 05:12:27;;;;;;;3.73;3.43;;;17.40;99.90;;;;;;5120575;27;20236;-79
2023/07/14 05:14:54;;;;;;;3.83;3.50;;;17.40;99.90;;;;;;5108248;28;20293;-79
2023/07/14 05:17:21;;;;;;;5.20;4.00;;;17.30;99.90;;;;;;5108102;28;20255;-79
2023/07/14 05:19:47;;;;;;;4.47;3.63;;;17.20;99.90;;;;;;5108001;28;20216;-79
2023/07/14 05:22:14;;;;;;;6.33;3.50;;;17.30;99.90;;;;;;5111067;27;20314;-79
2023/07/14 05:24:42;;;;;;;3.77;3.57;;;17.30;99.90;;;;;;5126627;27;20194;-80
2023/07/14 05:27:09;;;;;;;4.00;3.70;;;17.20;99.90;;;;;;5128224;27;20328;-79
2023/07/14 05:29:36;;;;;;;4.60;3.73;;;17.10;99.90;;;;;;5128305;27;20207;-80
2023/07/14 05:32:03;;;;;;;7.60;3.60;;;17.10;99.90;;;;;;5128036;27;20339;-79
2023/07/14 05:34:30;;;;;;;5.60;3.63;;;17.10;99.90;;;;;;5128015;27;20288;-79
2023/07/14 05:36:57;;;;;;;4.00;3.70;;;17.20;99.90;;;;;;5128084;27;20231;-80
2023/07/14 05:39:24;;;;;;;3.73;3.30;;;17.30;99.90;;;;;;5128633;27;20289;-79
2023/07/14 05:41:52;;;;;;;4.87;3.53;;;17.40;99.90;;;;;;5127928;27;20212;-79
2023/07/14 05:44:19;;;;;;;3.87;3.53;;;17.40;99.90;;;;;;5128241;27;20694;-79
2023/07/14 05:46:46;;;;;;;3.67;3.37;;;17.40;99.90;;;;;;5127366;27;20858;-79
2023/07/14 05:49:13;;;;;;;4.57;3.40;;;17.60;99.90;;;;;;5128751;27;20303;-80
2023/07/14 05:51:39;;;;;;;4.13;3.30;;;17.80;99.90;;;;;;5124169;27;20319;-79
2023/07/14 05:54:06;;;;;;;6.93;3.20;;;18.00;99.90;;;;;;5128747;27;20206;-80
2023/07/14 05:56:33;;;;;;;4.00;2.97;;;17.90;99.90;;;;;;5128151;27;20292;-80
2023/07/14 05:59:02;;;;;;;4.20;3.00;;;17.90;99.90;;;;;;5127143;27;20225;-80
2023/07/14 06:01:29;;;;;;;3.50;3.20;;;17.90;99.90;;;;;;5127452;27;20294;-80
2023/07/14 06:03:56;;;;;;;4.07;2.73;;;17.80;99.90;;;;;;5107161;27;20198;-80
2023/07/14 06:06:23;;;;;;;2.80;2.60;;;17.90;99.90;;;;;;5107277;28;20220;-80
2023/07/14 06:08:50;;;;;;;3.63;3.37;;;18.10;99.90;;;;;;5106472;27;20242;-80
2023/07/14 06:11:17;;;;;;;3.40;3.20;;;18.10;99.90;;;;;;5110005;27;20225;-80
2023/07/14 06:13:44;;;;;;;2.73;2.53;;;18.10;99.90;;;;;;5115672;27;20255;-80
2023/07/14 06:16:12;;;;;;;3.87;2.67;;;18.00;99.90;;;;;;5106887;28;20316;-80
2023/07/14 06:18:39;;;;;;;9.20;7.67;;;18.10;99.90;;;;;;5116709;27;20710;-81
2023/07/14 06:21:08;;;;;;;6.53;5.93;;;18.20;99.90;;;;;;5140544;27;20946;-80
2023/07/14 06:23:34;;;;;;;5.33;4.83;;;18.20;99.90;;;;;;5115799;27;20740;-81
2023/07/14 06:26:01;;;;;;;7.30;2.90;;;18.40;99.90;;;;;;5127442;27;20339;-80
2023/07/14 06:28:28;;;;;;;3.10;2.43;;;18.50;99.90;;;;;;5127044;27;20236;-81
2023/07/14 06:30:57;;;;;;;2.57;2.40;;;18.60;99.90;;;;;;5127141;27;20213;-80
2023/07/14 06:33:26;;;;;;;2.47;2.27;;;18.60;99.90;;;;;;5127494;27;20208;-80
2023/07/14 06:35:55;;;;;;;2.93;2.43;;;18.70;99.90;;;;;;5122427;27;20740;-80
2023/07/14 06:38:22;;;;;;;3.07;2.50;;;18.80;99.90;;;;;;5126853;27;20224;-81
2023/07/14 06:40:56;;;;;;;3.37;2.43;;;18.90;99.90;;;;;;5127374;27;20201;-80
2023/07/14 06:43:23;;;;;;;3.70;2.50;;;18.90;99.90;;;;;;5127355;27;20208;-80
2023/07/14 06:45:50;;;;;;;2.47;2.17;;;18.90;99.90;;;;;;5125469;27;20812;-80
2023/07/14 06:48:17;;;;;;;3.20;2.40;;;19.00;99.90;;;;;;5126708;27;20197;-81
2023/07/14 06:50:46;;;;;;;2.13;2.00;;;19.10;99.90;;;;;;5113829;27;20674;-81
2023/07/14 06:53:13;;;;;;;5.13;2.50;;;19.10;99.90;;;;;;5107279;27;20236;-80
2023/07/14 06:55:42;;;;;;;5.73;2.30;;;19.20;99.90;;;;;;5126907;27;20213;-80
2023/07/14 06:58:08;;;;;;;3.07;2.27;;;19.20;99.90;;;;;;5115180;27;20210;-80
2023/07/14 07:00:35;;;;;;;2.20;2.00;;;19.10;99.90;;;;;;5106222;28;20253;-81
2023/07/14 07:03:04;;;;;;;2.70;2.10;;;19.10;99.90;;;;;;5106105;27;20978;-80
2023/07/14 07:05:31;;;;;;;2.83;2.20;;;19.20;99.90;;;;;;5106380;28;20680;-80
2023/07/14 07:07:59;;;;;;;3.53;2.37;;;19.30;99.90;;;;;;5120742;27;20314;-81
2023/07/14 07:10:26;;;;;;;3.47;2.40;;;19.40;99.90;;;;;;5127146;27;20309;-81
2023/07/14 07:12:53;;;;;;;3.83;2.37;;;19.50;99.90;;;;;;5125964;27;20316;-80
2023/07/14 07:15:20;;;;;;;4.57;2.40;;;19.60;99.90;;;;;;5126634;27;20296;-81
2023/07/14 07:17:47;;;;;;;4.73;2.30;;;19.60;99.90;;;;;;5126520;27;20205;-80
2023/07/14 07:20:14;;;;;;;2.13;1.93;;;19.70;99.90;;;;;;5108646;27;20206;-81
2023/07/14 07:22:42;;;;;;;7.90;7.20;;;19.70;99.90;;;;;;5117018;27;20194;-80
2023/07/14 07:25:10;;;;;;;5.40;3.07;;;19.70;99.90;;;;;;5106360;28;20282;-80
2023/07/14 07:27:37;;;;;;;2.50;2.30;;;19.70;99.90;;;;;;5106132;28;20288;-80
2023/07/14 07:30:05;;;;;;;3.50;2.10;;;19.80;99.90;;;;;;5116083;27;20288;-80
2023/07/14 07:32:32;;;;;;;2.37;2.17;;;19.90;99.90;;;;;;5126212;27;21074;-80
2023/07/14 07:35:00;;;;;;;3.03;2.20;;;19.90;99.90;;;;;;5126457;27;20216;-80
2023/07/14 07:37:27;;;;;;;3.70;2.23;;;20.00;99.90;;;;;;5126786;27;20221;-80
2023/07/14 07:39:56;;;;;;;3.17;2.40;;;20.00;99.90;;;;;;5118673;27;20668;-80
2023/07/14 07:42:24;;;;;;;2.00;1.90;;;20.10;99.90;;;;;;5120759;27;20208;-81
2023/07/14 07:44:51;;;;;;;2.20;1.80;;;20.20;99.90;;;;;;5126620;28;20207;-81
2023/07/14 07:47:17;;;;;;;3.87;2.37;;;20.20;99.90;;;;;;5126506;28;20242;-80
2023/07/14 07:49:44;;;;;;;3.30;3.00;;;20.20;99.90;;;;;;5117841;27;20201;-80
2023/07/14 07:52:12;;;;;;;4.13;2.80;;;20.30;99.90;;;;;;5126175;28;20332;-81
2023/07/14 07:54:39;;;;;;;2.75;2.30;;;20.30;99.90;;;;;;5126263;28;20261;-80
2023/07/14 07:57:07;;;;;;;2.00;1.90;;;20.30;99.90;;;;;;5126655;28;20258;-80
2023/07/14 07:59:35;;;;;;;2.53;1.90;;;20.30;99.90;;;;;;5106640;27;20719;-79
2023/07/14 08:02:03;;;;;;;2.10;2.00;;;20.40;99.90;;;;;;5105971;28;20248;-79
2023/07/14 08:04:30;;;;;;;2.17;1.80;;;20.40;99.90;;;;;;5105975;28;20893;-80
2023/07/14 08:06:57;;;;;;;2.00;1.90;;;20.50;99.90;;;;;;5119718;28;20217;-80
2023/07/14 08:09:24;;;;;;;2.27;2.10;;;20.50;99.90;;;;;;5126522;28;20290;-80
2023/07/14 08:11:55;;;;;;;2.00;1.80;;;20.50;99.90;;;;;;5125792;28;20268;-80
2023/07/14 08:14:22;;;;;;;3.97;2.30;;;20.60;99.90;;;;;;5126346;28;20276;-80
2023/07/14 08:16:50;;;;;;;5.80;1.83;;;20.60;99.90;;;;;;5113953;28;20202;-80
2023/07/14 08:19:17;;;;;;;2.65;1.55;;;20.70;99.90;;;;;;5124722;28;21041;-80
2023/07/14 08:21:44;;;;;;;3.40;1.90;;;20.70;99.90;;;;;;5125680;28;20683;-80
2023/07/14 08:24:12;;;;;;;1.88;1.40;;;20.70;99.90;;;;;;5115854;28;20635;-80
2023/07/14 08:26:40;;;;;;;1.80;1.70;;;20.80;99.90;;;;;;5106548;28;20212;-81
2023/07/14 08:29:08;;;;;;;1.95;1.70;;;20.80;99.90;;;;;;5123878;28;20288;-80
2023/07/14 08:31:35;;;;;;;3.72;1.70;;;20.90;99.90;;;;;;5125958;28;20204;-80
2023/07/14 08:34:04;;;;;;;1.75;1.65;;;20.90;99.90;;;;;;5122195;27;20284;-80
2023/07/14 08:36:30;;;;;;;2.67;1.83;;;21.00;99.90;;;;;;5109286;28;20226;-80
2023/07/14 08:38:57;;;;;;;3.25;1.77;;;21.10;99.90;;;;;;5112220;27;21013;-80
2023/07/14 08:41:29;;;;;;;3.78;1.80;;;21.10;99.90;;;;;;5129554;27;20943;-80
2023/07/14 08:44:20;;;;;;;2.15;1.70;;;21.20;99.90;;;;;;5117285;27;20232;-80
2023/07/14 08:46:59;;;;;;;2.05;1.90;;;21.20;99.90;;;;;;5128448;27;20947;-80
2023/07/14 08:49:32;;;;;;;2.10;1.83;;;21.30;99.90;;;;;;5139230;27;20295;-81
2023/07/14 08:52:04;;;;;;;2.38;1.80;;;21.30;99.90;;;;;;5129855;27;20307;-80
2023/07/14 08:54:41;;;;;;;1.70;1.60;;;21.30;99.90;;;;;;5128830;27;20296;-80
2023/07/14 08:57:15;;;;;;;3.20;1.73;;;21.40;99.90;;;;;;5113893;27;20697;-80
2023/07/14 08:59:43;;;;;;;2.17;1.63;;;21.40;99.90;;;;;;5108866;28;20280;-80
2023/07/14 09:02:20;;;;;;;2.28;2.00;;;21.50;99.90;;;;;;5108559;28;20316;-80
2023/07/14 09:04:59;;;;;;;1.92;1.83;;;21.50;99.90;;;;;;5119625;27;20229;-80
2023/07/14 09:07:26;;;;;;;2.90;1.85;;;21.60;99.90;;;;;;5122083;27;20343;-80
2023/07/14 09:09:53;;;;;;;2.95;2.15;;;21.60;99.90;;;;;;5129389;27;20207;-80
2023/07/14 09:12:25;;;;;;;2.03;1.77;;;21.70;99.90;;;;;;5129021;27;20228;-81
2023/07/14 09:14:58;;;;;;;2.17;1.80;;;21.80;99.90;;;;;;5128866;27;20219;-80
2023/07/14 09:17:38;;;;;;;1.88;1.77;;;21.90;99.90;;;;;;5126630;27;20196;-81
2023/07/14 09:20:41;;;;;;;2.08;1.98;;;21.80;99.90;;;;;;5142897;27;20208;-81
2023/07/14 09:23:24;;;;;;;1.73;1.63;;;21.70;99.90;;;;;;5144975;27;20562;-80
2023/07/14 09:25:56;;;;;;;1.98;1.88;;;21.80;99.90;;;;;;5108631;28;20356;-80
2023/07/14 09:28:35;;;;;;;5.25;2.00;;;21.90;99.90;;;;;;5119284;27;20292;-80
2023/07/14 09:31:06;;;;;;;4.28;1.70;;;22.00;99.90;;;;;;5127676;27;20704;-80
2023/07/14 09:33:44;;;;;;;2.17;1.73;;;22.10;99.90;;;;;;5127440;27;20603;-80
2023/07/14 09:36:12;;;;;;;2.05;1.70;;;22.20;99.90;;;;;;5124345;27;20309;-79
2023/07/14 09:38:44;;;;;;;3.13;1.73;;;22.30;99.90;;;;;;5110803;27;20953;-81
2023/07/14 09:41:16;;;;;;;5.50;1.85;;;22.30;99.90;;;;;;5108126;28;20256;-80
2023/07/14 09:43:43;;;;;;;5.25;1.90;;;22.40;99.90;;;;;;5122392;27;20220;-80
2023/07/14 09:46:13;;;;;;;2.85;1.77;;;22.50;99.90;;;;;;5127600;27;20239;-80
2023/07/14 09:48:45;;;;;;;2.03;1.70;;;22.50;99.90;;;;;;5109033;27;20952;-79
2023/07/14 09:51:16;;;;;;;2.17;1.77;;;22.60;99.90;;;;;;5114559;27;20704;-80
2023/07/14 09:53:58;;;;;;;2.95;1.55;;;22.70;99.90;;;;;;5111856;27;20251;-80
2023/07/14 09:56:29;;;;;;;2.13;1.75;;;22.90;99.90;;;;;;5108395;28;20198;-79
2023/07/14 09:59:01;;;;;;;1.60;1.50;;;22.90;99.90;;;;;;5108093;28;20225;-80
2023/07/14 10:01:30;;;;;;;1.95;1.65;;;23.00;99.90;;;;;;5108241;28;20648;-79
2023/07/14 10:04:00;;;;;;;2.85;1.90;;;23.10;99.90;;;;;;5120393;27;20209;-80
2023/07/14 10:06:30;;;;;;;3.03;2.00;;;23.20;99.90;;;;;;5119175;27;20624;-80
2023/07/14 10:08:59;;;;;;;3.35;1.85;;;23.30;99.90;;;;;;5128609;27;20241;-79
2023/07/14 10:11:28;;;;;;;2.05;1.85;;;23.40;99.90;;;;;;5128363;27;20262;-80
2023/07/14 10:13:59;;;;;;;1.75;1.65;;;23.50;99.90;;;;;;5124009;27;20225;-80
2023/07/14 10:16:29;;;;;;;4.13;1.67;;;23.60;99.10;;;;;;5109359;27;20243;-80
2023/07/14 10:18:58;;;;;;;2.95;1.80;;;23.60;99.30;;;;;;5107435;28;20213;-79
2023/07/14 10:21:30;;;;;;;3.83;1.85;;;23.60;99.30;;;;;;5107663;28;20206;-80
2023/07/14 10:23:59;;;;;;;2.42;1.70;;;23.60;99.40;;;;;;5107392;28;20190;-79
2023/07/14 10:26:30;;;;;;;3.05;1.80;;;23.70;99.10;;;;;;5114167;27;20567;-80
2023/07/14 10:28:57;;;;;;;2.67;1.88;;;23.80;99.60;;;;;;5114050;27;20566;-80
2023/07/14 10:31:33;;;;;;;3.22;1.80;;;23.90;99.20;;;;;;5107730;28;20289;-79
2023/07/14 10:34:23;;;;;;;1.95;1.85;;;24.00;98.90;;;;;;5107356;28;20702;-83
2023/07/14 10:36:55;;;;;;;2.97;1.65;;;24.00;98.40;;;;;;5107531;28;20257;-80
2023/07/14 10:39:35;;;;;;;2.05;1.75;;;24.10;98.10;;;;;;5115259;27;20205;-80
2023/07/14 10:42:04;;;;;;;2.83;2.00;;;24.20;97.80;;;;;;5127784;27;20694;-79
2023/07/14 10:44:35;;;;;;;1.70;1.60;;;24.20;97.90;;;;;;5127634;27;20240;-79
2023/07/14 10:47:11;;;;;;;2.65;1.83;;;24.20;97.30;;;;;;5127324;27;20621;-79
2023/07/14 10:49:43;;;;;;;1.83;1.73;;;24.30;97.30;;;;;;5123810;27;20229;-80
2023/07/14 10:52:17;;;;;;;1.80;1.70;;;24.60;97.20;;;;;;5123904;27;20277;-79
2023/07/14 10:54:49;;;;;;;2.15;1.83;;;24.80;96.80;;;;;;5106447;28;20686;-80
2023/07/14 10:57:33;;;;;;;4.13;1.63;;;24.90;96.10;;;;;;5106758;28;20299;-79
2023/07/14 11:00:15;;;;;;;1.90;1.80;;;24.90;96.40;;;;;;5106851;28;20205;-79
2023/07/14 11:02:46;;;;;;;3.22;1.90;;;24.90;96.10;;;;;;5106592;28;20202;-80
2023/07/14 11:05:16;;;;;;;2.40;1.90;;;24.90;96.00;;;;;;5107266;28;20714;-81
2023/07/14 11:07:45;;;;;;;2.13;1.67;;;24.80;96.20;;;;;;5106237;28;20320;-79
2023/07/14 11:10:21;;;;;;;3.30;2.40;;;24.80;96.30;;;;;;5106770;28;20290;-79
2023/07/14 11:12:54;;;;;;;4.55;1.80;;;24.90;96.30;;;;;;5106169;28;20756;-80
2023/07/14 11:15:26;;;;;;;2.28;1.75;;;25.00;96.40;;;;;;5106621;28;20229;-80
2023/07/14 11:18:00;;;;;;;2.20;2.10;;;25.20;95.70;;;;;;5106588;28;20195;-80
2023/07/14 11:20:32;;;;;;;2.35;1.73;;;25.30;95.70;;;;;;5136972;27;20289;-79
2023/07/14 11:23:13;;;;;;;2.65;2.08;;;25.50;95.40;;;;;;5106512;28;20316;-79
2023/07/14 11:25:49;;;;;;;2.00;1.90;;;25.60;94.90;;;;;;5106411;28;20281;-80
2023/07/14 11:28:32;;;;;;;4.10;2.45;;;25.80;94.70;;;;;;5116231;27;20197;-79
2023/07/14 11:31:02;;;;;;;3.13;1.95;;;26.10;94.10;;;;;;5106212;28;20743;-79
2023/07/14 11:33:38;;;;;;;3.17;2.10;;;26.10;94.20;;;;;;5115769;27;20233;-80
2023/07/14 11:36:12;;;;;;;1.92;1.83;;;26.20;94.00;;;;;;5125750;27;20233;-79
2023/07/14 11:38:46;;;;;;;3.67;2.20;;;26.40;93.90;;;;;;5125809;27;20190;-80
2023/07/14 11:41:15;;;;;;;2.72;1.92;;;26.60;93.60;;;;;;5126503;27;20189;-79
2023/07/14 11:43:43;;;;;;;2.40;2.20;;;26.60;93.50;;;;;;5125439;27;20667;-79
2023/07/14 11:46:15;;;;;;;2.45;2.30;;;26.60;93.00;;;;;;5113948;27;20668;-80
2023/07/14 11:48:44;;;;;;;2.20;2.08;;;26.70;92.90;;;;;;5106293;28;20293;-79
2023/07/14 11:51:15;;;;;;;2.28;2.08;;;26.80;93.20;;;;;;5106468;28;20259;-79
2023/07/14 11:54:04;;;;;;;2.55;1.90;;;26.80;92.80;;;;;;5106530;28;20221;-79
2023/07/14 11:56:35;;;;;;;2.83;2.30;;;26.90;92.70;;;;;;5119961;28;20189;-79
2023/07/14 11:59:13;;;;;;;7.20;2.10;;;26.80;92.50;;;;;;5109036;28;20295;-79
2023/07/14 12:01:47;;;;;;;4.10;2.47;;;26.70;92.80;;;;;;5107056;28;20273;-78
2023/07/14 12:04:30;;;;;;;4.95;2.85;;;26.60;92.40;;;;;;5117227;28;20272;-79
2023/07/14 12:07:19;;;;;;;3.65;2.20;;;26.40;92.50;;;;;;5126311;27;20641;-78
2023/07/14 12:10:15;;;;;;;2.25;2.10;;;26.40;92.90;;;;;;5123462;27;20285;-80
2023/07/14 12:13:03;;;;;;;2.30;2.17;;;26.50;92.60;;;;;;5062523;28;20292;-79
2023/07/14 12:15:45;;;;;;;2.60;2.33;;;26.50;92.10;;;;;;5110248;28;20212;-78
2023/07/14 12:18:27;;;;;;;2.70;2.50;;;26.50;92.40;;;;;;5110875;27;20675;-78
2023/07/14 12:21:21;;;;;;;3.67;2.53;;;26.40;92.60;;;;;;5113691;27;20194;-80
2023/07/14 12:23:50;;;;;;;3.83;2.58;;;26.50;92.50;;;;;;5110029;28;20298;-79
2023/07/14 12:26:21;;;;;;;3.15;2.58;;;26.50;91.70;;;;;;5110658;28;20209;-78
2023/07/14 12:28:49;;;;;;;2.63;2.42;;;26.40;91.70;;;;;;5128329;27;20681;-79
2023/07/14 12:31:17;;;;;;;3.83;2.45;;;26.50;92.10;;;;;;5130702;27;20248;-79
2023/07/14 12:33:45;;;;;;;5.57;2.88;;;26.50;91.70;;;;;;5130328;27;20221;-79
2023/07/14 12:36:16;;;;;;;8.68;2.88;;;26.70;91.60;;;;;;5130770;27;20239;-79
2023/07/14 12:38:45;;;;;;;2.70;2.50;;;26.70;91.20;;;;;;5127257;27;20268;-79
2023/07/14 12:41:12;;;;;;;2.92;2.60;;;26.90;91.30;;;;;;5122740;27;20307;-80
2023/07/14 12:43:43;;;;;;;3.03;2.53;;;27.20;91.10;;;;;;5130331;27;20266;-80
2023/07/14 12:46:17;;;;;;;2.63;2.42;;;27.50;90.80;;;;;;5130853;27;20190;-79
2023/07/14 12:48:45;;;;;;;2.83;2.63;;;27.80;90.80;;;;;;5130304;27;20212;-79
2023/07/14 12:51:18;;;;;;;3.28;2.78;;;27.90;90.50;;;;;;5112879;27;20206;-79
2023/07/14 12:53:51;;;;;;;2.80;2.60;;;28.00;90.20;;;;;;5112155;27;20296;-78
2023/07/14 12:56:18;;;;;;;3.15;2.90;;;27.90;89.30;;;;;;5129740;27;20629;-79
2023/07/14 12:58:46;;;;;;;3.03;2.60;;;27.70;90.10;;;;;;5129964;27;20248;-78
2023/07/14 13:01:17;;;;;;;2.63;2.53;;;27.80;90.60;;;;;;5130279;27;20316;-79
2023/07/14 13:03:44;;;;;;;3.58;2.72;;;27.90;89.50;;;;;;5129314;27;20193;-79